sensor_id;sensor_type;location;lat;lon;timestamp;P1;durP1;ratioP1;P2;durP2;ratioP2
67227;SDS011;54139;42.616;23.748;2023-06-14T00:00:47;34.08;;;26.48;;
67227;SDS011;54139;42.616;23.748;2023-06-14T00:03:13;36.95;;;26.85;;
67227;SDS011;54139;42.616;23.748;2023-06-14T00:05:42;35.45;;;26.90;;
67227;SDS011;54139;42.616;23.748;2023-06-14T00:08:09;31.10;;;26.13;;
67227;SDS011;54139;42.616;23.748;2023-06-14T00:10:35;37.55;;;27.92;;
67227;SDS011;54139;42.616;23.748;2023-06-14T00:13:04;41.20;;;29.58;;
67227;SDS011;54139;42.616;23.748;2023-06-14T00:15:30;36.65;;;27.63;;
67227;SDS011;54139;42.616;23.748;2023-06-14T00:17:56;50.85;;;30.10;;
67227;SDS011;54139;42.616;23.748;2023-06-14T00:22:51;36.78;;;25.10;;
67227;SDS011;54139;42.616;23.748;2023-06-14T00:25:17;39.25;;;24.90;;
67227;SDS011;54139;42.616;23.748;2023-06-14T00:27:42;46.03;;;28.90;;
67227;SDS011;54139;42.616;23.748;2023-06-14T00:30:08;46.80;;;30.67;;
67227;SDS011;54139;42.616;23.748;2023-06-14T00:32:33;53.33;;;32.50;;
67227;SDS011;54139;42.616;23.748;2023-06-14T00:34:59;43.60;;;27.38;;
67227;SDS011;54139;42.616;23.748;2023-06-14T00:37:24;56.15;;;31.65;;
67227;SDS011;54139;42.616;23.748;2023-06-14T00:39:50;40.05;;;24.45;;
67227;SDS011;54139;42.616;23.748;2023-06-14T00:42:25;39.97;;;25.65;;
67227;SDS011;54139;42.616;23.748;2023-06-14T00:44:51;39.70;;;25.40;;
67227;SDS011;54139;42.616;23.748;2023-06-14T00:47:16;39.45;;;25.65;;
67227;SDS011;54139;42.616;23.748;2023-06-14T00:49:42;36.38;;;26.08;;
67227;SDS011;54139;42.616;23.748;2023-06-14T00:52:08;55.00;;;29.92;;
67227;SDS011;54139;42.616;23.748;2023-06-14T00:54:37;37.42;;;25.65;;
67227;SDS011;54139;42.616;23.748;2023-06-14T00:57:02;50.67;;;29.63;;
67227;SDS011;54139;42.616;23.748;2023-06-14T00:59:28;48.10;;;28.83;;
67227;SDS011;54139;42.616;23.748;2023-06-14T01:01:53;45.10;;;28.65;;
67227;SDS011;54139;42.616;23.748;2023-06-14T01:04:19;50.05;;;28.63;;
67227;SDS011;54139;42.616;23.748;2023-06-14T01:07:02;50.55;;;31.17;;
67227;SDS011;54139;42.616;23.748;2023-06-14T01:10:18;49.75;;;30.77;;
67227;SDS011;54139;42.616;23.748;2023-06-14T01:12:35;47.53;;;29.45;;
67227;SDS011;54139;42.616;23.748;2023-06-14T01:15:10;64.15;;;35.35;;
67227;SDS011;54139;42.616;23.748;2023-06-14T01:17:37;47.95;;;29.83;;
67227;SDS011;54139;42.616;23.748;2023-06-14T01:20:07;55.78;;;31.38;;
67227;SDS011;54139;42.616;23.748;2023-06-14T01:22:35;49.47;;;31.73;;
67227;SDS011;54139;42.616;23.748;2023-06-14T01:25:01;53.90;;;32.67;;
67227;SDS011;54139;42.616;23.748;2023-06-14T01:27:26;53.90;;;32.08;;
67227;SDS011;54139;42.616;23.748;2023-06-14T01:29:55;53.30;;;31.45;;
67227;SDS011;54139;42.616;23.748;2023-06-14T01:32:24;51.05;;;31.20;;
67227;SDS011;54139;42.616;23.748;2023-06-14T01:34:51;49.92;;;31.13;;
67227;SDS011;54139;42.616;23.748;2023-06-14T01:37:17;44.40;;;30.60;;
67227;SDS011;54139;42.616;23.748;2023-06-14T01:39:43;50.97;;;31.98;;
67227;SDS011;54139;42.616;23.748;2023-06-14T01:42:10;48.22;;;32.08;;
67227;SDS011;54139;42.616;23.748;2023-06-14T01:44:36;55.58;;;32.97;;
67227;SDS011;54139;42.616;23.748;2023-06-14T01:47:02;57.80;;;34.63;;
67227;SDS011;54139;42.616;23.748;2023-06-14T01:49:28;54.90;;;34.67;;
67227;SDS011;54139;42.616;23.748;2023-06-14T01:51:53;53.30;;;34.70;;
67227;SDS011;54139;42.616;23.748;2023-06-14T01:54:19;61.22;;;37.03;;
67227;SDS011;54139;42.616;23.748;2023-06-14T01:56:46;59.97;;;38.60;;
67227;SDS011;54139;42.616;23.748;2023-06-14T01:59:12;62.40;;;38.00;;
67227;SDS011;54139;42.616;23.748;2023-06-14T02:01:37;65.93;;;39.88;;
67227;SDS011;54139;42.616;23.748;2023-06-14T02:04:03;65.85;;;38.30;;
67227;SDS011;54139;42.616;23.748;2023-06-14T02:06:28;60.17;;;37.20;;
67227;SDS011;54139;42.616;23.748;2023-06-14T02:08:54;55.88;;;35.72;;
67227;SDS011;54139;42.616;23.748;2023-06-14T02:11:19;61.75;;;33.58;;
67227;SDS011;54139;42.616;23.748;2023-06-14T02:13:45;56.75;;;32.28;;
67227;SDS011;54139;42.616;23.748;2023-06-14T02:16:10;55.30;;;33.13;;
67227;SDS011;54139;42.616;23.748;2023-06-14T02:18:36;54.38;;;32.10;;
67227;SDS011;54139;42.616;23.748;2023-06-14T02:21:01;62.80;;;35.20;;
67227;SDS011;54139;42.616;23.748;2023-06-14T02:23:27;58.97;;;33.33;;
67227;SDS011;54139;42.616;23.748;2023-06-14T02:25:53;62.50;;;34.72;;
67227;SDS011;54139;42.616;23.748;2023-06-14T02:28:18;54.92;;;31.95;;
67227;SDS011;54139;42.616;23.748;2023-06-14T02:30:44;60.17;;;32.08;;
67227;SDS011;54139;42.616;23.748;2023-06-14T02:33:09;75.65;;;36.95;;
67227;SDS011;54139;42.616;23.748;2023-06-14T02:35:38;69.67;;;35.17;;
67227;SDS011;54139;42.616;23.748;2023-06-14T02:38:03;50.40;;;31.00;;
67227;SDS011;54139;42.616;23.748;2023-06-14T02:40:29;49.38;;;29.60;;
67227;SDS011;54139;42.616;23.748;2023-06-14T02:42:55;44.83;;;28.42;;
67227;SDS011;54139;42.616;23.748;2023-06-14T02:45:20;50.88;;;28.70;;
67227;SDS011;54139;42.616;23.748;2023-06-14T02:47:46;52.83;;;29.05;;
67227;SDS011;54139;42.616;23.748;2023-06-14T02:50:12;54.97;;;31.38;;
67227;SDS011;54139;42.616;23.748;2023-06-14T02:52:37;74.00;;;36.40;;
67227;SDS011;54139;42.616;23.748;2023-06-14T02:55:03;56.28;;;32.90;;
67227;SDS011;54139;42.616;23.748;2023-06-14T02:57:29;50.13;;;30.35;;
67227;SDS011;54139;42.616;23.748;2023-06-14T02:59:55;64.60;;;36.35;;
67227;SDS011;54139;42.616;23.748;2023-06-14T03:02:20;52.80;;;31.75;;
67227;SDS011;54139;42.616;23.748;2023-06-14T03:04:45;55.20;;;30.67;;
67227;SDS011;54139;42.616;23.748;2023-06-14T03:07:11;59.33;;;34.08;;
67227;SDS011;54139;42.616;23.748;2023-06-14T03:09:38;51.97;;;31.35;;
67227;SDS011;54139;42.616;23.748;2023-06-14T03:12:04;59.03;;;32.83;;
67227;SDS011;54139;42.616;23.748;2023-06-14T03:14:32;59.50;;;32.53;;
67227;SDS011;54139;42.616;23.748;2023-06-14T03:16:57;59.70;;;32.63;;
67227;SDS011;54139;42.616;23.748;2023-06-14T03:19:24;63.45;;;34.20;;
67227;SDS011;54139;42.616;23.748;2023-06-14T03:21:50;50.80;;;32.00;;
67227;SDS011;54139;42.616;23.748;2023-06-14T03:24:16;54.75;;;33.80;;
67227;SDS011;54139;42.616;23.748;2023-06-14T03:26:42;71.72;;;36.95;;
67227;SDS011;54139;42.616;23.748;2023-06-14T03:29:08;55.03;;;34.25;;
67227;SDS011;54139;42.616;23.748;2023-06-14T03:31:34;62.05;;;35.15;;
67227;SDS011;54139;42.616;23.748;2023-06-14T03:34:00;67.78;;;36.30;;
67227;SDS011;54139;42.616;23.748;2023-06-14T03:36:26;64.43;;;36.00;;
67227;SDS011;54139;42.616;23.748;2023-06-14T03:38:52;57.85;;;31.73;;
67227;SDS011;54139;42.616;23.748;2023-06-14T03:41:18;71.22;;;34.97;;
67227;SDS011;54139;42.616;23.748;2023-06-14T03:43:43;54.20;;;32.58;;
67227;SDS011;54139;42.616;23.748;2023-06-14T03:46:09;81.13;;;37.92;;
67227;SDS011;54139;42.616;23.748;2023-06-14T03:48:34;61.30;;;31.92;;
67227;SDS011;54139;42.616;23.748;2023-06-14T03:51:00;54.20;;;31.58;;
67227;SDS011;54139;42.616;23.748;2023-06-14T03:53:25;54.28;;;32.47;;
67227;SDS011;54139;42.616;23.748;2023-06-14T03:55:53;57.75;;;31.85;;
67227;SDS011;54139;42.616;23.748;2023-06-14T03:58:19;44.83;;;28.85;;
67227;SDS011;54139;42.616;23.748;2023-06-14T04:00:44;55.08;;;28.63;;
67227;SDS011;54139;42.616;23.748;2023-06-14T04:03:10;48.05;;;28.30;;
67227;SDS011;54139;42.616;23.748;2023-06-14T04:05:38;41.30;;;26.27;;
67227;SDS011;54139;42.616;23.748;2023-06-14T04:08:07;54.20;;;29.75;;
67227;SDS011;54139;42.616;23.748;2023-06-14T04:10:34;35.00;;;24.42;;
67227;SDS011;54139;42.616;23.748;2023-06-14T04:12:59;30.10;;;21.83;;
67227;SDS011;54139;42.616;23.748;2023-06-14T04:15:25;27.52;;;21.23;;
67227;SDS011;54139;42.616;23.748;2023-06-14T04:17:53;39.55;;;24.08;;
67227;SDS011;54139;42.616;23.748;2023-06-14T04:22:47;28.88;;;20.05;;
67227;SDS011;54139;42.616;23.748;2023-06-14T04:25:14;18.50;;;16.52;;
67227;SDS011;54139;42.616;23.748;2023-06-14T04:27:40;16.98;;;15.25;;
67227;SDS011;54139;42.616;23.748;2023-06-14T04:30:09;16.70;;;15.10;;
67227;SDS011;54139;42.616;23.748;2023-06-14T04:32:34;18.10;;;15.50;;
67227;SDS011;54139;42.616;23.748;2023-06-14T04:35:05;15.80;;;14.30;;
67227;SDS011;54139;42.616;23.748;2023-06-14T04:37:34;16.60;;;15.00;;
67227;SDS011;54139;42.616;23.748;2023-06-14T04:39:59;15.65;;;13.50;;
67227;SDS011;54139;42.616;23.748;2023-06-14T04:42:25;15.32;;;13.85;;
67227;SDS011;54139;42.616;23.748;2023-06-14T04:44:56;15.55;;;14.13;;
67227;SDS011;54139;42.616;23.748;2023-06-14T04:47:22;17.65;;;15.48;;
67227;SDS011;54139;42.616;23.748;2023-06-14T04:49:49;16.23;;;12.73;;
67227;SDS011;54139;42.616;23.748;2023-06-14T04:52:18;15.80;;;14.13;;
67227;SDS011;54139;42.616;23.748;2023-06-14T04:54:45;14.13;;;12.80;;
67227;SDS011;54139;42.616;23.748;2023-06-14T04:57:11;15.85;;;14.45;;
67227;SDS011;54139;42.616;23.748;2023-06-14T04:59:42;15.30;;;13.68;;
67227;SDS011;54139;42.616;23.748;2023-06-14T05:02:09;15.57;;;13.82;;
67227;SDS011;54139;42.616;23.748;2023-06-14T05:04:35;14.18;;;12.70;;
67227;SDS011;54139;42.616;23.748;2023-06-14T05:07:07;12.00;;;10.95;;
67227;SDS011;54139;42.616;23.748;2023-06-14T05:09:34;12.50;;;11.57;;
67227;SDS011;54139;42.616;23.748;2023-06-14T05:12:00;13.00;;;12.00;;
67227;SDS011;54139;42.616;23.748;2023-06-14T05:14:26;13.63;;;12.45;;
67227;SDS011;54139;42.616;23.748;2023-06-14T05:16:51;11.43;;;10.32;;
67227;SDS011;54139;42.616;23.748;2023-06-14T05:19:17;12.73;;;11.63;;
67227;SDS011;54139;42.616;23.748;2023-06-14T05:21:43;13.70;;;12.38;;
67227;SDS011;54139;42.616;23.748;2023-06-14T05:24:09;13.32;;;12.07;;
67227;SDS011;54139;42.616;23.748;2023-06-14T05:26:34;13.77;;;12.48;;
67227;SDS011;54139;42.616;23.748;2023-06-14T05:29:00;12.30;;;11.20;;
67227;SDS011;54139;42.616;23.748;2023-06-14T05:31:26;11.77;;;10.88;;
67227;SDS011;54139;42.616;23.748;2023-06-14T05:33:53;13.63;;;12.40;;
67227;SDS011;54139;42.616;23.748;2023-06-14T05:36:22;14.68;;;12.82;;
67227;SDS011;54139;42.616;23.748;2023-06-14T05:38:47;14.75;;;13.45;;
67227;SDS011;54139;42.616;23.748;2023-06-14T05:41:13;14.40;;;12.95;;
67227;SDS011;54139;42.616;23.748;2023-06-14T05:43:38;17.48;;;15.02;;
67227;SDS011;54139;42.616;23.748;2023-06-14T05:46:04;17.98;;;15.10;;
67227;SDS011;54139;42.616;23.748;2023-06-14T05:48:32;16.35;;;14.85;;
67227;SDS011;54139;42.616;23.748;2023-06-14T05:50:58;15.90;;;14.40;;
67227;SDS011;54139;42.616;23.748;2023-06-14T05:53:24;16.27;;;14.63;;
67227;SDS011;54139;42.616;23.748;2023-06-14T05:55:49;17.95;;;14.85;;
67227;SDS011;54139;42.616;23.748;2023-06-14T05:58:16;13.88;;;12.52;;
67227;SDS011;54139;42.616;23.748;2023-06-14T06:00:42;12.52;;;11.38;;
67227;SDS011;54139;42.616;23.748;2023-06-14T06:03:07;11.43;;;10.38;;
67227;SDS011;54139;42.616;23.748;2023-06-14T06:05:34;11.60;;;10.45;;
67227;SDS011;54139;42.616;23.748;2023-06-14T06:07:59;10.95;;;9.90;;
67227;SDS011;54139;42.616;23.748;2023-06-14T06:10:25;11.52;;;10.52;;
67227;SDS011;54139;42.616;23.748;2023-06-14T06:12:51;9.65;;;8.82;;
67227;SDS011;54139;42.616;23.748;2023-06-14T06:15:17;8.25;;;7.68;;
67227;SDS011;54139;42.616;23.748;2023-06-14T06:17:43;6.97;;;6.47;;
67227;SDS011;54139;42.616;23.748;2023-06-14T06:20:09;6.88;;;6.38;;
67227;SDS011;54139;42.616;23.748;2023-06-14T06:22:36;7.50;;;6.90;;
67227;SDS011;54139;42.616;23.748;2023-06-14T06:25:02;8.80;;;8.02;;
67227;SDS011;54139;42.616;23.748;2023-06-14T06:27:29;8.68;;;8.07;;
67227;SDS011;54139;42.616;23.748;2023-06-14T06:29:54;9.70;;;8.80;;
67227;SDS011;54139;42.616;23.748;2023-06-14T06:32:20;9.85;;;9.05;;
67227;SDS011;54139;42.616;23.748;2023-06-14T06:34:45;9.27;;;8.57;;
67227;SDS011;54139;42.616;23.748;2023-06-14T06:37:11;11.80;;;10.40;;
67227;SDS011;54139;42.616;23.748;2023-06-14T06:39:36;10.85;;;9.55;;
67227;SDS011;54139;42.616;23.748;2023-06-14T06:42:02;10.02;;;9.25;;
67227;SDS011;54139;42.616;23.748;2023-06-14T06:44:27;10.75;;;9.85;;
67227;SDS011;54139;42.616;23.748;2023-06-14T06:46:52;10.50;;;9.70;;
67227;SDS011;54139;42.616;23.748;2023-06-14T06:49:18;11.23;;;10.38;;
67227;SDS011;54139;42.616;23.748;2023-06-14T06:51:52;10.25;;;9.55;;
67227;SDS011;54139;42.616;23.748;2023-06-14T06:54:24;10.45;;;9.65;;
67227;SDS011;54139;42.616;23.748;2023-06-14T06:56:49;9.73;;;8.82;;
67227;SDS011;54139;42.616;23.748;2023-06-14T06:59:15;8.40;;;7.72;;
67227;SDS011;54139;42.616;23.748;2023-06-14T07:01:41;7.50;;;7.00;;
67227;SDS011;54139;42.616;23.748;2023-06-14T07:04:07;8.32;;;7.78;;
67227;SDS011;54139;42.616;23.748;2023-06-14T07:06:32;8.70;;;8.10;;
67227;SDS011;54139;42.616;23.748;2023-06-14T07:08:58;8.45;;;7.85;;
67227;SDS011;54139;42.616;23.748;2023-06-14T07:11:26;8.43;;;7.63;;
67227;SDS011;54139;42.616;23.748;2023-06-14T07:13:52;8.40;;;7.68;;
67227;SDS011;54139;42.616;23.748;2023-06-14T07:16:17;9.15;;;8.55;;
67227;SDS011;54139;42.616;23.748;2023-06-14T07:18:43;8.93;;;8.20;;
67227;SDS011;54139;42.616;23.748;2023-06-14T07:21:09;9.30;;;8.60;;
67227;SDS011;54139;42.616;23.748;2023-06-14T07:23:34;8.68;;;8.10;;
67227;SDS011;54139;42.616;23.748;2023-06-14T07:26:00;8.10;;;7.50;;
67227;SDS011;54139;42.616;23.748;2023-06-14T07:28:26;8.27;;;7.68;;
67227;SDS011;54139;42.616;23.748;2023-06-14T07:30:51;7.72;;;7.03;;
67227;SDS011;54139;42.616;23.748;2023-06-14T07:33:16;8.00;;;7.30;;
67227;SDS011;54139;42.616;23.748;2023-06-14T07:35:42;8.15;;;7.32;;
67227;SDS011;54139;42.616;23.748;2023-06-14T07:38:07;7.95;;;7.15;;
67227;SDS011;54139;42.616;23.748;2023-06-14T07:40:33;8.13;;;7.63;;
67227;SDS011;54139;42.616;23.748;2023-06-14T07:42:58;7.40;;;6.90;;
67227;SDS011;54139;42.616;23.748;2023-06-14T07:45:24;7.97;;;7.47;;
67227;SDS011;54139;42.616;23.748;2023-06-14T07:47:49;7.78;;;7.28;;
67227;SDS011;54139;42.616;23.748;2023-06-14T07:50:16;7.40;;;6.90;;
67227;SDS011;54139;42.616;23.748;2023-06-14T07:52:42;7.43;;;6.82;;
67227;SDS011;54139;42.616;23.748;2023-06-14T07:55:07;7.20;;;6.70;;
67227;SDS011;54139;42.616;23.748;2023-06-14T07:57:33;7.85;;;7.35;;
67227;SDS011;54139;42.616;23.748;2023-06-14T07:59:58;8.65;;;7.80;;
67227;SDS011;54139;42.616;23.748;2023-06-14T08:02:24;9.43;;;8.68;;
67227;SDS011;54139;42.616;23.748;2023-06-14T08:04:49;9.20;;;8.25;;
67227;SDS011;54139;42.616;23.748;2023-06-14T08:07:14;9.90;;;9.00;;
67227;SDS011;54139;42.616;23.748;2023-06-14T08:09:40;9.15;;;8.18;;
67227;SDS011;54139;42.616;23.748;2023-06-14T08:12:06;8.38;;;7.88;;
67227;SDS011;54139;42.616;23.748;2023-06-14T08:17:00;9.18;;;8.30;;
67227;SDS011;54139;42.616;23.748;2023-06-14T08:19:26;8.60;;;7.90;;
67227;SDS011;54139;42.616;23.748;2023-06-14T08:21:51;10.00;;;9.30;;
67227;SDS011;54139;42.616;23.748;2023-06-14T08:24:20;8.93;;;8.23;;
67227;SDS011;54139;42.616;23.748;2023-06-14T08:26:49;9.18;;;8.52;;
67227;SDS011;54139;42.616;23.748;2023-06-14T08:29:15;8.07;;;7.38;;
67227;SDS011;54139;42.616;23.748;2023-06-14T08:31:40;8.98;;;8.20;;
67227;SDS011;54139;42.616;23.748;2023-06-14T08:34:06;7.63;;;6.93;;
67227;SDS011;54139;42.616;23.748;2023-06-14T08:36:31;7.30;;;6.68;;
67227;SDS011;54139;42.616;23.748;2023-06-14T08:38:57;7.60;;;7.10;;
67227;SDS011;54139;42.616;23.748;2023-06-14T08:41:22;6.97;;;6.47;;
67227;SDS011;54139;42.616;23.748;2023-06-14T08:43:49;7.07;;;6.38;;
67227;SDS011;54139;42.616;23.748;2023-06-14T08:46:17;6.90;;;6.40;;
67227;SDS011;54139;42.616;23.748;2023-06-14T08:48:45;6.53;;;6.03;;
67227;SDS011;54139;42.616;23.748;2023-06-14T08:51:12;6.90;;;6.22;;
67227;SDS011;54139;42.616;23.748;2023-06-14T08:56:07;7.63;;;6.93;;
67227;SDS011;54139;42.616;23.748;2023-06-14T08:58:39;7.00;;;6.50;;
67227;SDS011;54139;42.616;23.748;2023-06-14T09:01:10;6.63;;;6.03;;
67227;SDS011;54139;42.616;23.748;2023-06-14T09:03:39;6.93;;;6.43;;
67227;SDS011;54139;42.616;23.748;2023-06-14T09:06:08;6.45;;;6.05;;
67227;SDS011;54139;42.616;23.748;2023-06-14T09:08:41;6.85;;;6.35;;
67227;SDS011;54139;42.616;23.748;2023-06-14T09:11:10;6.63;;;6.07;;
67227;SDS011;54139;42.616;23.748;2023-06-14T09:13:37;8.27;;;6.38;;
67227;SDS011;54139;42.616;23.748;2023-06-14T09:16:02;6.55;;;6.05;;
67227;SDS011;54139;42.616;23.748;2023-06-14T09:18:35;7.45;;;6.95;;
67227;SDS011;54139;42.616;23.748;2023-06-14T09:21:02;7.50;;;6.93;;
67227;SDS011;54139;42.616;23.748;2023-06-14T09:23:27;7.22;;;6.63;;
67227;SDS011;54139;42.616;23.748;2023-06-14T09:25:53;6.93;;;6.43;;
67227;SDS011;54139;42.616;23.748;2023-06-14T09:28:18;7.38;;;6.68;;
67227;SDS011;54139;42.616;23.748;2023-06-14T09:30:45;6.95;;;6.18;;
67227;SDS011;54139;42.616;23.748;2023-06-14T09:33:10;6.70;;;6.20;;
67227;SDS011;54139;42.616;23.748;2023-06-14T09:35:36;7.32;;;6.82;;
67227;SDS011;54139;42.616;23.748;2023-06-14T09:38:01;7.53;;;6.88;;
67227;SDS011;54139;42.616;23.748;2023-06-14T09:40:26;7.95;;;7.38;;
67227;SDS011;54139;42.616;23.748;2023-06-14T09:42:52;7.40;;;6.80;;
67227;SDS011;54139;42.616;23.748;2023-06-14T09:45:18;7.50;;;6.85;;
67227;SDS011;54139;42.616;23.748;2023-06-14T09:47:48;7.70;;;7.20;;
67227;SDS011;54139;42.616;23.748;2023-06-14T09:50:14;7.63;;;7.13;;
67227;SDS011;54139;42.616;23.748;2023-06-14T09:52:40;8.13;;;7.53;;
67227;SDS011;54139;42.616;23.748;2023-06-14T09:55:09;8.10;;;7.40;;
67227;SDS011;54139;42.616;23.748;2023-06-14T09:57:37;7.45;;;6.85;;
67227;SDS011;54139;42.616;23.748;2023-06-14T10:00:03;7.97;;;7.28;;
67227;SDS011;54139;42.616;23.748;2023-06-14T10:02:36;9.18;;;7.80;;
67227;SDS011;54139;42.616;23.748;2023-06-14T10:05:06;8.65;;;7.95;;
67227;SDS011;54139;42.616;23.748;2023-06-14T10:07:44;8.93;;;7.82;;
67227;SDS011;54139;42.616;23.748;2023-06-14T10:10:14;7.55;;;6.85;;
67227;SDS011;54139;42.616;23.748;2023-06-14T10:12:39;7.20;;;6.70;;
67227;SDS011;54139;42.616;23.748;2023-06-14T10:15:05;7.75;;;7.15;;
67227;SDS011;54139;42.616;23.748;2023-06-14T10:17:35;7.30;;;6.80;;
67227;SDS011;54139;42.616;23.748;2023-06-14T10:20:17;7.45;;;6.80;;
67227;SDS011;54139;42.616;23.748;2023-06-14T10:22:58;7.38;;;6.65;;
67227;SDS011;54139;42.616;23.748;2023-06-14T10:25:28;9.10;;;6.70;;
67227;SDS011;54139;42.616;23.748;2023-06-14T10:31:06;6.30;;;5.82;;
67227;SDS011;54139;42.616;23.748;2023-06-14T10:33:39;7.93;;;7.25;;
67227;SDS011;54139;42.616;23.748;2023-06-14T10:41:36;7.28;;;6.78;;
67227;SDS011;54139;42.616;23.748;2023-06-14T10:46:37;6.70;;;6.22;;
67227;SDS011;54139;42.616;23.748;2023-06-14T10:49:16;5.95;;;5.55;;
67227;SDS011;54139;42.616;23.748;2023-06-14T10:51:45;7.03;;;6.43;;
67227;SDS011;54139;42.616;23.748;2023-06-14T10:54:19;8.02;;;7.30;;
67227;SDS011;54139;42.616;23.748;2023-06-14T10:56:49;11.13;;;6.65;;
67227;SDS011;54139;42.616;23.748;2023-06-14T10:59:16;7.18;;;6.45;;
67227;SDS011;54139;42.616;23.748;2023-06-14T11:01:51;7.45;;;6.75;;
67227;SDS011;54139;42.616;23.748;2023-06-14T11:04:47;7.75;;;7.00;;
67227;SDS011;54139;42.616;23.748;2023-06-14T11:10:09;6.70;;;6.20;;
67227;SDS011;54139;42.616;23.748;2023-06-14T11:12:40;6.80;;;6.30;;
67227;SDS011;54139;42.616;23.748;2023-06-14T11:15:07;5.80;;;5.40;;
67227;SDS011;54139;42.616;23.748;2023-06-14T11:17:33;6.90;;;6.40;;
67227;SDS011;54139;42.616;23.748;2023-06-14T11:20:11;6.40;;;5.80;;
67227;SDS011;54139;42.616;23.748;2023-06-14T11:22:43;6.32;;;5.88;;
67227;SDS011;54139;42.616;23.748;2023-06-14T11:25:09;5.63;;;5.22;;
67227;SDS011;54139;42.616;23.748;2023-06-14T11:27:35;6.00;;;5.55;;
67227;SDS011;54139;42.616;23.748;2023-06-14T11:30:00;6.63;;;5.82;;
67227;SDS011;54139;42.616;23.748;2023-06-14T11:32:26;6.50;;;5.90;;
67227;SDS011;54139;42.616;23.748;2023-06-14T11:34:51;5.47;;;5.07;;
67227;SDS011;54139;42.616;23.748;2023-06-14T11:37:17;5.75;;;5.28;;
67227;SDS011;54139;42.616;23.748;2023-06-14T11:39:45;5.30;;;5.00;;
67227;SDS011;54139;42.616;23.748;2023-06-14T11:42:17;5.07;;;4.68;;
67227;SDS011;54139;42.616;23.748;2023-06-14T11:44:45;5.45;;;4.95;;
67227;SDS011;54139;42.616;23.748;2023-06-14T11:47:11;5.13;;;4.82;;
67227;SDS011;54139;42.616;23.748;2023-06-14T11:49:37;5.72;;;5.32;;
67227;SDS011;54139;42.616;23.748;2023-06-14T11:52:03;5.90;;;5.50;;
67227;SDS011;54139;42.616;23.748;2023-06-14T11:54:28;6.85;;;6.18;;
67227;SDS011;54139;42.616;23.748;2023-06-14T11:56:54;6.22;;;5.60;;
67227;SDS011;54139;42.616;23.748;2023-06-14T11:59:23;5.75;;;5.35;;
67227;SDS011;54139;42.616;23.748;2023-06-14T12:01:50;5.53;;;5.15;;
67227;SDS011;54139;42.616;23.748;2023-06-14T12:04:22;5.22;;;4.90;;
67227;SDS011;54139;42.616;23.748;2023-06-14T12:06:51;6.15;;;5.75;;
67227;SDS011;54139;42.616;23.748;2023-06-14T12:09:18;6.25;;;5.75;;
67227;SDS011;54139;42.616;23.748;2023-06-14T12:11:44;6.32;;;5.93;;
67227;SDS011;54139;42.616;23.748;2023-06-14T12:14:10;6.95;;;6.35;;
67227;SDS011;54139;42.616;23.748;2023-06-14T12:16:37;6.75;;;6.18;;
67227;SDS011;54139;42.616;23.748;2023-06-14T12:19:11;7.38;;;6.88;;
67227;SDS011;54139;42.616;23.748;2023-06-14T12:21:38;6.82;;;6.32;;
67227;SDS011;54139;42.616;23.748;2023-06-14T12:26:32;7.03;;;6.40;;
67227;SDS011;54139;42.616;23.748;2023-06-14T12:28:58;6.30;;;5.80;;
67227;SDS011;54139;42.616;23.748;2023-06-14T12:31:24;6.30;;;5.90;;
67227;SDS011;54139;42.616;23.748;2023-06-14T12:33:49;6.65;;;6.15;;
67227;SDS011;54139;42.616;23.748;2023-06-14T12:36:15;6.40;;;6.00;;
67227;SDS011;54139;42.616;23.748;2023-06-14T12:38:42;6.50;;;6.05;;
67227;SDS011;54139;42.616;23.748;2023-06-14T12:41:07;6.00;;;5.60;;
67227;SDS011;54139;42.616;23.748;2023-06-14T12:43:33;7.18;;;6.63;;
67227;SDS011;54139;42.616;23.748;2023-06-14T12:45:59;6.53;;;5.93;;
67227;SDS011;54139;42.616;23.748;2023-06-14T12:48:25;6.57;;;5.97;;
67227;SDS011;54139;42.616;23.748;2023-06-14T12:50:56;6.47;;;5.97;;
67227;SDS011;54139;42.616;23.748;2023-06-14T12:53:23;6.70;;;6.20;;
67227;SDS011;54139;42.616;23.748;2023-06-14T12:55:49;7.57;;;5.85;;
67227;SDS011;54139;42.616;23.748;2023-06-14T12:58:14;7.07;;;6.50;;
67227;SDS011;54139;42.616;23.748;2023-06-14T13:00:42;6.60;;;6.07;;
67227;SDS011;54139;42.616;23.748;2023-06-14T13:03:07;6.85;;;6.35;;
67227;SDS011;54139;42.616;23.748;2023-06-14T13:05:33;6.35;;;5.85;;
67227;SDS011;54139;42.616;23.748;2023-06-14T13:07:59;6.82;;;6.38;;
67227;SDS011;54139;42.616;23.748;2023-06-14T13:10:25;8.13;;;5.90;;
67227;SDS011;54139;42.616;23.748;2023-06-14T13:12:51;6.57;;;5.97;;
67227;SDS011;54139;42.616;23.748;2023-06-14T13:15:16;6.00;;;5.50;;
67227;SDS011;54139;42.616;23.748;2023-06-14T13:17:42;5.65;;;5.10;;
67227;SDS011;54139;42.616;23.748;2023-06-14T13:20:09;6.35;;;5.75;;
67227;SDS011;54139;42.616;23.748;2023-06-14T13:22:35;6.18;;;5.78;;
67227;SDS011;54139;42.616;23.748;2023-06-14T13:25:00;6.47;;;5.88;;
67227;SDS011;54139;42.616;23.748;2023-06-14T13:27:27;6.45;;;5.90;;
67227;SDS011;54139;42.616;23.748;2023-06-14T13:29:52;5.35;;;5.03;;
67227;SDS011;54139;42.616;23.748;2023-06-14T13:32:20;5.53;;;5.13;;
67227;SDS011;54139;42.616;23.748;2023-06-14T13:34:46;5.55;;;5.15;;
67227;SDS011;54139;42.616;23.748;2023-06-14T13:37:11;5.57;;;5.07;;
67227;SDS011;54139;42.616;23.748;2023-06-14T13:39:37;5.95;;;5.55;;
67227;SDS011;54139;42.616;23.748;2023-06-14T13:42:02;5.97;;;5.57;;
67227;SDS011;54139;42.616;23.748;2023-06-14T13:44:28;6.03;;;5.50;;
67227;SDS011;54139;42.616;23.748;2023-06-14T13:46:54;5.25;;;4.80;;
67227;SDS011;54139;42.616;23.748;2023-06-14T13:49:19;5.60;;;5.20;;
67227;SDS011;54139;42.616;23.748;2023-06-14T13:51:45;6.45;;;5.85;;
67227;SDS011;54139;42.616;23.748;2023-06-14T13:54:12;8.52;;;6.15;;
67227;SDS011;54139;42.616;23.748;2023-06-14T13:56:37;7.45;;;6.85;;
67227;SDS011;54139;42.616;23.748;2023-06-14T13:59:03;7.07;;;6.57;;
67227;SDS011;54139;42.616;23.748;2023-06-14T14:01:29;8.18;;;7.35;;
67227;SDS011;54139;42.616;23.748;2023-06-14T14:03:54;8.10;;;7.32;;
67227;SDS011;54139;42.616;23.748;2023-06-14T14:06:20;7.78;;;7.28;;
67227;SDS011;54139;42.616;23.748;2023-06-14T14:08:45;9.43;;;7.80;;
67227;SDS011;54139;42.616;23.748;2023-06-14T14:11:11;7.80;;;7.32;;
67227;SDS011;54139;42.616;23.748;2023-06-14T14:13:37;7.85;;;7.30;;
67227;SDS011;54139;42.616;23.748;2023-06-14T14:16:04;11.25;;;8.32;;
67227;SDS011;54139;42.616;23.748;2023-06-14T14:18:30;9.10;;;8.30;;
67227;SDS011;54139;42.616;23.748;2023-06-14T14:20:55;7.95;;;7.38;;
67227;SDS011;54139;42.616;23.748;2023-06-14T14:23:21;7.85;;;7.35;;
67227;SDS011;54139;42.616;23.748;2023-06-14T14:25:47;7.97;;;7.47;;
67227;SDS011;54139;42.616;23.748;2023-06-14T14:28:13;9.38;;;7.93;;
67227;SDS011;54139;42.616;23.748;2023-06-14T14:30:41;8.35;;;7.80;;
67227;SDS011;54139;42.616;23.748;2023-06-14T14:33:06;8.32;;;7.72;;
67227;SDS011;54139;42.616;23.748;2023-06-14T14:35:32;9.15;;;8.35;;
67227;SDS011;54139;42.616;23.748;2023-06-14T14:37:57;10.52;;;9.38;;
67227;SDS011;54139;42.616;23.748;2023-06-14T14:40:23;8.90;;;8.20;;
67227;SDS011;54139;42.616;23.748;2023-06-14T14:42:49;7.10;;;6.30;;
67227;SDS011;54139;42.616;23.748;2023-06-14T14:45:15;6.28;;;5.78;;
67227;SDS011;54139;42.616;23.748;2023-06-14T14:47:40;6.20;;;5.80;;